Capitol Logistics 236


KIAD
Washington Dulles International Airport
Dulles, Virginia, US
KRIV
March Air Reserve Base
Riverside, California, US

Route Details

Aircraft Information
Primary: Boeing 767-300BDSF
Backup: Not Available
Route Data
Distance: 1970nm
Sched. Duration: 5h 29m
Avg. Duration: 5h 35m (+6m)
Times Flown: 2
Recm'd Route: BUNZZ3 RAMAY Q72 HACKS J149 EMPTY J80 SAAGS J80 MCI J24 SLN J102 LAA J102 GUP J96 PKE J78 TRM ARKOE1
Planned Altitude: 34,000ft
Origin Wx: KIAD 281052Z 20009KT 10SM OVC065 M01/M09 A2994 RMK AO2 SLP142 T10111094
Dest. Wx: KRIV 281058Z AUTO 30004KT 10SM CLR 12/M04 A3013 RMK AO2 SLP196 T01211041
Notes:

Financial History
Total Freight: 131,918lbs
Average Load: 65,959lbs/flt
Fuel Used: 111,187lbs
Avg. Fuel Used: 55,594lbs/flt
Fuel Expense: $143,431
Avg. Fuel Expense: $71,716
Avg. Fuel Cost: $1.29/lbs
Total Gross Income: $218,984
Pilot Pay: $468
Total Expenses: $23,754
Total Revenue: $49,291
Average Revenue: $109,491.94